Time;durP1;ratioP1;P1;durP2;ratioP2;P2;SDS_P1;SDS_P2;PMS_P1;PMS_P2;Temp;Humidity;BMP_temperature;BMP_pressure;BME280_temperature;BME280_humidity;BME280_pressure;Samples;Min_cycle;Max_cycle;Signal;HPM_P1;HPM_P2
2022/05/02 00:00:15;;;;;;;11.27;10.07;;;9.80;99.90;;;;;;5083646;28;20451;-76
2022/05/02 00:03:01;;;;;;;11.97;9.80;;;9.80;99.90;;;;;;5085540;28;20520;-76
2022/05/02 00:05:48;;;;;;;10.03;9.03;;;9.90;99.90;;;;;;5087685;28;20431;-76
2022/05/02 00:08:34;;;;;;;9.00;8.10;;;9.90;99.90;;;;;;5079060;28;20468;-76
2022/05/02 00:11:20;;;;;;;10.77;9.67;;;9.80;99.90;;;;;;5087520;28;20440;-76
2022/05/02 00:14:05;;;;;;;10.07;9.07;;;9.70;99.90;;;;;;5089291;28;20469;-76
2022/05/02 00:16:51;;;;;;;11.20;8.87;;;9.70;99.90;;;;;;5088062;28;21006;-76
2022/05/02 00:19:36;;;;;;;10.60;9.50;;;9.70;99.90;;;;;;5085453;28;20791;-77
2022/05/02 00:22:23;;;;;;;10.17;9.17;;;9.60;99.90;;;;;;5084547;28;20533;-76
2022/05/02 00:25:09;;;;;;;9.80;8.80;;;9.60;99.90;;;;;;5087497;28;20457;-77
2022/05/02 00:27:55;;;;;;;14.30;9.53;;;9.60;99.90;;;;;;5082439;28;20563;-76
2022/05/02 00:30:41;;;;;;;14.07;10.30;;;9.50;99.90;;;;;;5087555;28;20455;-76
2022/05/02 00:33:27;;;;;;;11.77;10.47;;;9.50;99.90;;;;;;5087705;28;20523;-77
2022/05/02 00:36:15;;;;;;;12.03;9.90;;;9.60;99.90;;;;;;5087581;28;20444;-76
2022/05/02 00:39:02;;;;;;;14.40;9.23;;;9.60;99.90;;;;;;5084176;28;20797;-77
2022/05/02 00:41:48;;;;;;;14.43;11.47;;;9.60;99.90;;;;;;5082741;28;20452;-77
2022/05/02 00:44:33;;;;;;;11.20;9.93;;;9.70;99.90;;;;;;5087628;28;20939;-76
2022/05/02 00:47:20;;;;;;;11.13;9.57;;;9.70;99.90;;;;;;5086585;28;20478;-76
2022/05/02 00:50:08;;;;;;;19.17;9.10;;;9.70;99.90;;;;;;5088277;28;20458;-77
2022/05/02 00:52:53;;;;;;;13.23;9.90;;;9.70;99.90;;;;;;5088749;28;20472;-77
2022/05/02 00:55:41;;;;;;;12.87;9.60;;;9.80;99.90;;;;;;5091395;28;21073;-77
2022/05/02 00:58:26;;;;;;;11.07;9.97;;;9.90;99.90;;;;;;5087192;28;20423;-77
2022/05/02 01:01:12;;;;;;;13.77;10.80;;;9.90;99.90;;;;;;5088898;28;20778;-77
2022/05/02 01:03:58;;;;;;;11.40;10.20;;;9.90;99.90;;;;;;5087975;28;20454;-77
2022/05/02 01:09:52;;;;;;;10.57;9.57;;;9.80;99.90;;;;;;5091509;28;20426;-77
2022/05/02 01:12:40;;;;;;;12.33;11.13;;;9.70;99.90;;;;;;5091155;28;20438;-77
2022/05/02 01:15:28;;;;;;;11.53;10.37;;;9.80;99.90;;;;;;5090717;28;20422;-77
2022/05/02 01:18:13;;;;;;;11.27;10.07;;;9.90;99.90;;;;;;5083506;28;20499;-77
2022/05/02 01:21:00;;;;;;;11.87;10.30;;;10.00;99.90;;;;;;5084421;28;20442;-77
2022/05/02 01:23:49;;;;;;;11.87;10.60;;;10.00;99.90;;;;;;5091103;28;20778;-76
2022/05/02 01:26:34;;;;;;;11.10;9.70;;;9.90;99.90;;;;;;5087467;28;20469;-77
2022/05/02 01:29:20;;;;;;;10.93;9.77;;;9.80;99.90;;;;;;5087872;28;20559;-77
2022/05/02 01:32:08;;;;;;;11.27;10.07;;;9.80;99.90;;;;;;5092181;28;20525;-77
2022/05/02 01:34:53;;;;;;;19.43;10.50;;;9.70;99.90;;;;;;5090761;28;20447;-77
2022/05/02 01:37:40;;;;;;;10.47;8.97;;;9.70;99.90;;;;;;5085909;28;20449;-77
2022/05/02 01:40:26;;;;;;;12.77;10.00;;;9.70;99.90;;;;;;5088596;28;20431;-77
2022/05/02 01:43:11;;;;;;;12.90;10.23;;;9.70;99.90;;;;;;5090950;28;21003;-77
2022/05/02 01:45:57;;;;;;;15.60;11.20;;;9.60;99.90;;;;;;5091831;28;20940;-76
2022/05/02 01:48:42;;;;;;;12.87;11.50;;;9.50;99.90;;;;;;5087351;28;20591;-76
2022/05/02 01:51:28;;;;;;;12.73;10.57;;;9.50;99.90;;;;;;5093065;28;20432;-76
2022/05/02 01:54:15;;;;;;;13.23;11.40;;;9.50;99.90;;;;;;5091447;28;20786;-76
2022/05/02 01:57:00;;;;;;;12.93;11.30;;;9.50;99.90;;;;;;5086907;28;20545;-76
2022/05/02 01:59:46;;;;;;;15.73;10.70;;;9.50;99.90;;;;;;5090501;28;20407;-77
2022/05/02 02:02:32;;;;;;;11.97;10.70;;;9.40;99.90;;;;;;5089587;28;20495;-77
2022/05/02 02:08:23;;;;;;;15.53;10.40;;;9.40;99.90;;;;;;5088612;28;20876;-76
2022/05/02 02:11:11;;;;;;;11.10;10.00;;;9.30;99.90;;;;;;5090105;28;20553;-76
2022/05/02 02:13:57;;;;;;;12.90;11.60;;;9.40;99.90;;;;;;5089116;28;20417;-76
2022/05/02 02:16:42;;;;;;;12.93;11.60;;;9.40;99.90;;;;;;5084819;28;20435;-77
2022/05/02 02:19:28;;;;;;;14.10;10.20;;;9.50;99.90;;;;;;5091058;28;20429;-76
2022/05/02 02:22:17;;;;;;;12.37;11.07;;;9.50;99.90;;;;;;5086221;28;20520;-77
2022/05/02 02:25:03;;;;;;;13.30;11.90;;;9.40;99.90;;;;;;5087904;28;20472;-76
2022/05/02 02:27:50;;;;;;;11.00;9.77;;;9.40;99.90;;;;;;5087121;28;20444;-76
2022/05/02 02:30:36;;;;;;;13.30;11.80;;;9.30;99.90;;;;;;5088401;28;20455;-76
2022/05/02 02:33:22;;;;;;;13.83;11.57;;;9.20;99.90;;;;;;5089561;28;20483;-76
2022/05/02 02:36:08;;;;;;;11.47;10.30;;;9.10;99.90;;;;;;5086073;28;20595;-77
2022/05/02 02:38:54;;;;;;;11.60;10.40;;;9.00;99.90;;;;;;5088296;28;20474;-76
2022/05/02 02:41:39;;;;;;;11.63;10.47;;;9.00;99.90;;;;;;5087826;28;20406;-77
2022/05/02 02:44:26;;;;;;;11.60;10.40;;;9.00;99.90;;;;;;5084570;28;20418;-76
2022/05/02 02:47:12;;;;;;;14.90;10.77;;;9.00;99.90;;;;;;5085315;28;20528;-77
2022/05/02 02:49:57;;;;;;;11.83;10.30;;;8.90;99.90;;;;;;5088385;28;20475;-77
2022/05/02 02:52:43;;;;;;;12.37;10.47;;;8.90;99.90;;;;;;5090195;28;20456;-76
2022/05/02 02:55:29;;;;;;;12.10;10.80;;;8.80;99.90;;;;;;5085126;28;20424;-76
2022/05/02 02:58:14;;;;;;;10.17;9.07;;;8.90;99.90;;;;;;5086008;28;21118;-77
2022/05/02 03:01:01;;;;;;;12.20;10.93;;;8.70;99.90;;;;;;5088900;28;20816;-76
2022/05/02 03:03:47;;;;;;;15.43;11.27;;;8.70;99.90;;;;;;5108138;22;20495;-72
2022/05/02 03:06:32;;;;;;;14.73;13.07;;;8.70;99.90;;;;;;5085874;28;20460;-72
2022/05/02 03:09:18;;;;;;;12.40;11.10;;;8.80;99.90;;;;;;5089149;28;20548;-72
2022/05/02 03:12:04;;;;;;;12.33;11.07;;;8.80;99.90;;;;;;5088725;28;20438;-72
2022/05/02 03:14:50;;;;;;;13.43;10.27;;;8.80;99.90;;;;;;5073505;28;20461;-72
2022/05/02 03:17:37;;;;;;;13.67;10.80;;;8.80;99.90;;;;;;5068901;28;20435;-72
2022/05/02 03:20:23;;;;;;;12.73;10.40;;;8.70;99.90;;;;;;5072486;28;20440;-72
2022/05/02 03:23:09;;;;;;;13.33;10.47;;;8.60;99.90;;;;;;5071509;28;20473;-73
2022/05/02 03:25:54;;;;;;;10.90;9.80;;;8.50;99.90;;;;;;5065081;28;20475;-72
2022/05/02 03:28:40;;;;;;;11.03;9.83;;;8.50;99.90;;;;;;5070487;28;20803;-73
2022/05/02 03:31:25;;;;;;;12.10;10.77;;;8.60;99.90;;;;;;5069990;28;20492;-72
2022/05/02 03:34:13;;;;;;;11.47;10.27;;;8.50;99.90;;;;;;5072004;28;20592;-72
2022/05/02 03:36:58;;;;;;;11.27;10.17;;;8.50;99.90;;;;;;5066444;28;20447;-72
2022/05/02 03:39:44;;;;;;;11.67;10.43;;;8.50;99.90;;;;;;5071299;28;20793;-72
2022/05/02 03:42:30;;;;;;;11.27;9.87;;;8.60;99.90;;;;;;5070203;28;20818;-72
2022/05/02 03:45:15;;;;;;;12.23;10.93;;;8.70;99.90;;;;;;5064030;28;21499;-72
2022/05/02 03:48:01;;;;;;;12.20;9.50;;;8.50;99.90;;;;;;5070495;28;20452;-72
2022/05/02 03:50:48;;;;;;;11.63;9.83;;;8.40;99.90;;;;;;5074786;28;20432;-72
2022/05/02 03:53:34;;;;;;;14.73;11.67;;;8.30;99.90;;;;;;5070425;28;20450;-72
2022/05/02 03:56:19;;;;;;;11.17;9.80;;;8.30;99.90;;;;;;5062145;28;20449;-72
2022/05/02 03:59:05;;;;;;;11.93;10.70;;;8.30;99.90;;;;;;5072065;28;20449;-72
2022/05/02 04:01:50;;;;;;;11.43;9.43;;;8.40;99.90;;;;;;5075593;28;20462;-73
2022/05/02 04:04:36;;;;;;;11.83;9.60;;;8.40;99.90;;;;;;5070025;28;20519;-72
2022/05/02 04:07:23;;;;;;;11.47;9.57;;;8.30;99.90;;;;;;5069541;28;20479;-72
2022/05/02 04:10:09;;;;;;;12.10;10.90;;;8.20;99.90;;;;;;5069528;28;20470;-72
2022/05/02 04:12:55;;;;;;;11.20;10.03;;;8.20;99.90;;;;;;5074589;28;20801;-73
2022/05/02 04:15:41;;;;;;;14.07;11.43;;;8.10;99.90;;;;;;5064994;28;20521;-72
2022/05/02 04:18:27;;;;;;;12.43;11.17;;;8.20;99.90;;;;;;5070157;28;20424;-72
2022/05/02 04:21:12;;;;;;;11.83;10.17;;;8.20;99.90;;;;;;5072528;28;20420;-72
2022/05/02 04:23:59;;;;;;;13.90;10.77;;;8.20;99.90;;;;;;5062909;28;20471;-72
2022/05/02 04:26:45;;;;;;;11.20;9.77;;;8.20;99.90;;;;;;5069022;28;20442;-73
2022/05/02 04:29:31;;;;;;;10.37;9.37;;;8.40;99.90;;;;;;5068843;28;20471;-72
2022/05/02 04:32:17;;;;;;;14.40;9.93;;;8.40;99.90;;;;;;5070053;28;20447;-72
2022/05/02 04:35:03;;;;;;;17.27;9.53;;;8.40;99.90;;;;;;5066773;28;20560;-72
2022/05/02 04:37:48;;;;;;;11.30;10.10;;;8.20;99.90;;;;;;5071749;28;20440;-72
2022/05/02 04:40:36;;;;;;;11.03;9.93;;;8.10;99.90;;;;;;5072725;28;20461;-72
2022/05/02 04:43:21;;;;;;;15.43;11.30;;;8.10;99.90;;;;;;5068169;28;20471;-72
2022/05/02 04:46:07;;;;;;;12.40;11.10;;;8.00;99.90;;;;;;5064856;28;20439;-72
2022/05/02 04:48:52;;;;;;;15.50;11.80;;;8.10;99.90;;;;;;5072599;28;20475;-73
2022/05/02 04:51:38;;;;;;;12.00;10.67;;;8.30;99.90;;;;;;5070133;28;20459;-72
2022/05/02 04:54:24;;;;;;;12.07;10.00;;;8.40;99.90;;;;;;5067496;28;20801;-72
2022/05/02 04:57:11;;;;;;;11.37;10.17;;;8.50;99.90;;;;;;5070114;28;20515;-72
2022/05/02 04:59:56;;;;;;;11.20;10.10;;;8.60;99.90;;;;;;5068789;28;20447;-72
2022/05/02 05:02:42;;;;;;;12.07;10.87;;;8.70;99.90;;;;;;5075466;28;20472;-72
2022/05/02 05:05:28;;;;;;;12.60;10.70;;;8.90;99.90;;;;;;5064970;28;20457;-72
2022/05/02 05:08:15;;;;;;;14.20;11.73;;;8.90;99.90;;;;;;5067322;28;20446;-72
2022/05/02 05:11:17;;;;;;;12.13;9.80;;;9.00;99.90;;;;;;5073036;28;20498;-73
2022/05/02 05:17:31;;;;;;;12.33;10.83;;;9.10;99.90;;;;;;5067398;28;20461;-72
2022/05/02 05:20:25;;;;;;;15.80;11.13;;;9.10;99.90;;;;;;5067210;28;20523;-72
2022/05/02 05:23:35;;;;;;;17.00;14.60;;;9.20;99.90;;;;;;5071222;28;20578;-72
2022/05/02 05:26:35;;;;;;;15.90;13.90;;;9.20;99.90;;;;;;5067295;28;20456;-72
2022/05/02 05:29:35;;;;;;;15.00;13.50;;;9.30;99.90;;;;;;5068749;28;20526;-73
2022/05/02 05:32:30;;;;;;;14.53;12.83;;;9.30;99.90;;;;;;5071108;28;20479;-72
2022/05/02 05:35:23;;;;;;;15.63;12.70;;;9.30;99.90;;;;;;5066027;28;20590;-72
2022/05/02 05:38:12;;;;;;;14.13;12.73;;;9.30;99.90;;;;;;5071378;28;20456;-72
2022/05/02 05:41:08;;;;;;;23.03;13.70;;;9.50;99.90;;;;;;5076917;28;20505;-72
2022/05/02 05:44:06;;;;;;;15.53;12.30;;;9.60;99.90;;;;;;5068570;28;20583;-72
2022/05/02 05:47:12;;;;;;;21.27;13.03;;;9.80;99.90;;;;;;5074498;28;20491;-72
2022/05/02 05:50:10;;;;;;;16.23;13.03;;;9.90;99.90;;;;;;5073515;28;20484;-73
2022/05/02 05:53:07;;;;;;;13.20;11.90;;;9.90;99.90;;;;;;5075828;28;20483;-72
2022/05/02 05:56:08;;;;;;;16.30;13.37;;;10.00;99.90;;;;;;5070497;28;20444;-72
2022/05/02 05:59:07;;;;;;;17.17;13.87;;;10.00;99.90;;;;;;5072187;28;20451;-73
2022/05/02 06:02:09;;;;;;;14.93;13.40;;;10.00;99.90;;;;;;5073787;28;20406;-72
2022/05/02 06:04:59;;;;;;;15.47;13.87;;;10.00;99.90;;;;;;5068205;28;20424;-72
2022/05/02 06:07:46;;;;;;;15.33;13.73;;;9.90;99.90;;;;;;5077392;28;20534;-73
2022/05/02 06:10:33;;;;;;;16.40;14.80;;;9.90;99.90;;;;;;5072617;28;20607;-72
2022/05/02 06:13:20;;;;;;;18.63;16.37;;;9.80;99.90;;;;;;5069144;28;20447;-72
2022/05/02 06:19:18;;;;;;;18.17;15.50;;;10.30;99.90;;;;;;5074400;28;20792;-72
2022/05/02 06:22:04;;;;;;;16.27;14.57;;;10.50;99.90;;;;;;5074752;28;20527;-73
2022/05/02 06:24:53;;;;;;;20.00;15.40;;;10.80;99.90;;;;;;5067811;28;20499;-72
2022/05/02 06:27:42;;;;;;;18.57;16.57;;;11.00;99.90;;;;;;5069843;28;20858;-72
2022/05/02 06:30:30;;;;;;;18.30;14.67;;;11.20;99.90;;;;;;5071514;28;20559;-72
2022/05/02 06:33:17;;;;;;;17.07;14.07;;;11.30;99.90;;;;;;5066706;28;20933;-72
2022/05/02 06:36:32;;;;;;;22.17;16.37;;;11.30;99.90;;;;;;5072856;28;20452;-72
2022/05/02 06:39:28;;;;;;;17.90;14.70;;;11.40;99.90;;;;;;5073832;28;20470;-73
2022/05/02 06:42:37;;;;;;;18.67;15.30;;;11.50;99.90;;;;;;5070873;28;20623;-73
2022/05/02 06:45:30;;;;;;;17.77;14.77;;;11.50;99.90;;;;;;5069723;28;20532;-72
2022/05/02 06:48:30;;;;;;;26.40;16.30;;;11.60;99.90;;;;;;5070923;28;20959;-72
2022/05/02 06:51:22;;;;;;;16.60;14.90;;;11.60;99.90;;;;;;5070868;28;20803;-72
2022/05/02 06:54:36;;;;;;;17.40;15.50;;;11.70;99.90;;;;;;5070056;28;20493;-72
2022/05/02 06:57:34;;;;;;;16.00;14.40;;;11.70;99.90;;;;;;5069328;28;20449;-72
2022/05/02 07:00:21;;;;;;;23.40;14.00;;;11.80;99.90;;;;;;5066394;28;20542;-73
2022/05/02 07:03:26;;;;;;;23.60;13.60;;;11.70;99.90;;;;;;5068484;28;20572;-73
2022/05/02 07:06:30;;;;;;;15.20;13.13;;;11.80;99.90;;;;;;5071789;28;20934;-73
2022/05/02 07:09:23;;;;;;;14.97;12.73;;;11.90;99.90;;;;;;5068988;28;20601;-72
2022/05/02 07:12:16;;;;;;;17.10;13.90;;;12.00;99.90;;;;;;5065895;28;20435;-72
2022/05/02 07:15:06;;;;;;;17.90;14.10;;;12.10;99.90;;;;;;5071583;28;20780;-72
2022/05/02 07:18:03;;;;;;;20.53;12.23;;;12.20;99.90;;;;;;5072363;28;20424;-72
2022/05/02 07:21:00;;;;;;;21.27;14.90;;;12.40;99.90;;;;;;5069517;28;20429;-72
2022/05/02 07:24:09;;;;;;;15.97;14.27;;;12.40;99.90;;;;;;5073371;28;20466;-73
2022/05/02 07:27:02;;;;;;;17.07;14.23;;;12.60;99.90;;;;;;5071921;28;20461;-73
2022/05/02 07:29:50;;;;;;;21.60;13.33;;;12.60;99.90;;;;;;5071362;28;20735;-72
2022/05/02 07:32:36;;;;;;;16.30;13.00;;;12.70;99.90;;;;;;5071352;28;20539;-72
2022/05/02 07:35:23;;;;;;;14.07;11.50;;;12.70;99.90;;;;;;5067975;28;20843;-73
2022/05/02 07:38:09;;;;;;;12.63;11.30;;;12.80;99.90;;;;;;5069706;28;20429;-72
2022/05/02 07:44:04;;;;;;;13.70;12.37;;;13.00;99.90;;;;;;5073029;28;20469;-72
2022/05/02 07:46:53;;;;;;;14.90;11.47;;;13.10;99.90;;;;;;5073434;28;20420;-72
2022/05/02 07:49:39;;;;;;;12.77;10.80;;;13.20;99.90;;;;;;5071416;28;20999;-71
2022/05/02 07:52:26;;;;;;;11.73;10.33;;;13.30;99.90;;;;;;5071024;28;20436;-72
2022/05/02 07:55:14;;;;;;;11.20;7.77;;;13.40;99.90;;;;;;5071998;28;21040;-72
2022/05/02 07:58:03;;;;;;;12.07;8.33;;;13.40;99.90;;;;;;5072222;28;20471;-72
2022/05/02 08:00:49;;;;;;;16.23;9.03;;;13.50;99.90;;;;;;5065170;28;20458;-72
2022/05/02 08:03:34;;;;;;;11.37;8.93;;;13.60;99.90;;;;;;5070537;28;21027;-72
2022/05/02 08:06:44;;;;;;;10.57;8.27;;;13.70;99.90;;;;;;5067330;28;20817;-72
2022/05/02 08:09:54;;;;;;;13.37;8.33;;;13.80;99.90;;;;;;5069451;28;20977;-72
2022/05/02 08:12:41;;;;;;;10.47;8.43;;;13.90;99.90;;;;;;5070909;28;20456;-72
2022/05/02 08:15:36;;;;;;;9.80;7.00;;;14.10;99.90;;;;;;5067002;28;20421;-72
2022/05/02 08:18:46;;;;;;;12.93;7.77;;;14.30;99.90;;;;;;5071988;28;21051;-72
2022/05/02 08:21:38;;;;;;;11.00;7.70;;;14.40;99.90;;;;;;5064563;28;20437;-72
2022/05/02 08:27:55;;;;;;;7.50;6.77;;;14.70;99.90;;;;;;5071947;28;20417;-71
2022/05/02 08:30:58;;;;;;;10.20;8.37;;;14.90;99.90;;;;;;5067411;28;21036;-72
2022/05/02 08:33:54;;;;;;;12.03;7.13;;;15.00;99.90;;;;;;5069495;28;20818;-72
2022/05/02 08:36:51;;;;;;;9.73;7.13;;;15.10;99.90;;;;;;5071166;28;20541;-72
2022/05/02 08:39:52;;;;;;;9.90;7.27;;;15.00;99.90;;;;;;5068949;28;21304;-72
2022/05/02 08:43:07;;;;;;;9.70;7.87;;;15.00;99.90;;;;;;5069300;28;20445;-72
2022/05/02 08:46:24;;;;;;;9.07;7.40;;;15.10;99.90;;;;;;5073104;28;20774;-72
2022/05/02 08:49:42;;;;;;;9.03;8.00;;;15.10;99.90;;;;;;5071978;28;20647;-72
2022/05/02 08:52:59;;;;;;;10.30;8.00;;;15.20;99.90;;;;;;5067979;28;21009;-72
2022/05/02 08:56:27;;;;;;;12.00;7.93;;;15.30;99.90;;;;;;5069352;28;20450;-73
2022/05/02 08:59:45;;;;;;;8.70;6.90;;;15.40;99.90;;;;;;5050203;28;20954;-72
2022/05/02 09:03:17;;;;;;;9.63;6.60;;;15.60;99.90;;;;;;5066772;28;20494;-72
2022/05/02 09:06:36;;;;;;;10.60;7.40;;;15.70;99.90;;;;;;5035795;28;20449;-72
2022/05/02 09:09:40;;;;;;;8.93;7.07;;;15.60;99.90;;;;;;5067895;28;20485;-72
2022/05/02 09:13:03;;;;;;;9.93;6.73;;;15.80;99.90;;;;;;5069675;28;20492;-72
2022/05/02 09:16:19;;;;;;;8.73;7.83;;;15.90;99.90;;;;;;5075535;28;20950;-72
2022/05/02 09:19:43;;;;;;;10.83;8.23;;;16.10;99.90;;;;;;5068506;28;20813;-72
2022/05/02 09:23:08;;;;;;;12.60;6.30;;;16.10;99.90;;;;;;5073632;28;20471;-72
2022/05/02 09:26:22;;;;;;;10.30;7.70;;;16.20;99.90;;;;;;5059096;28;20507;-72
2022/05/02 09:29:29;;;;;;;8.90;7.70;;;16.30;99.90;;;;;;5069582;28;20459;-72
2022/05/02 09:32:19;;;;;;;11.43;7.13;;;16.30;99.90;;;;;;5074769;28;20493;-72
2022/05/02 09:35:15;;;;;;;8.63;7.67;;;16.40;99.90;;;;;;5075348;28;21325;-72
2022/05/02 09:38:16;;;;;;;8.50;7.33;;;16.40;99.90;;;;;;5070685;28;20429;-72
2022/05/02 09:41:23;;;;;;;10.43;6.70;;;16.40;99.90;;;;;;5073010;28;20485;-72
2022/05/02 09:51:03;;;;;;;12.43;7.60;;;16.80;99.90;;;;;;5066315;28;20458;-72
2022/05/02 09:54:03;;;;;;;12.20;7.27;;;17.00;99.90;;;;;;5073080;28;20816;-72
2022/05/02 09:56:56;;;;;;;9.87;7.23;;;17.20;99.90;;;;;;5073634;28;20425;-72
2022/05/02 09:59:47;;;;;;;8.27;7.40;;;17.40;99.90;;;;;;5070166;28;20453;-71
2022/05/02 10:02:38;;;;;;;12.13;8.30;;;17.50;99.90;;;;;;5075666;28;20837;-72
2022/05/02 10:05:30;;;;;;;8.60;6.90;;;17.60;99.90;;;;;;5069679;28;20925;-72
2022/05/02 10:08:33;;;;;;;14.20;10.30;;;17.70;99.90;;;;;;5073015;28;20809;-72
2022/05/02 10:11:54;;;;;;;9.53;7.60;;;17.80;99.90;;;;;;5071344;28;20474;-72
2022/05/02 10:14:51;;;;;;;7.37;6.30;;;17.90;99.90;;;;;;5070344;28;20975;-72
2022/05/02 10:18:05;;;;;;;7.40;6.60;;;18.10;99.90;;;;;;5073050;28;20523;-72
2022/05/02 10:21:07;;;;;;;15.03;7.47;;;18.20;99.90;;;;;;5068372;28;20433;-72
2022/05/02 10:24:10;;;;;;;9.00;6.57;;;18.20;95.40;;;;;;5072567;28;20462;-72
2022/05/02 10:27:02;;;;;;;11.57;7.37;;;18.30;99.50;;;;;;5075062;28;20436;-72
2022/05/02 10:30:07;;;;;;;12.00;8.10;;;18.50;92.20;;;;;;5071195;28;20412;-72
2022/05/02 10:32:57;;;;;;;11.73;8.13;;;18.60;91.50;;;;;;5074611;28;20445;-73
2022/05/02 10:35:47;;;;;;;12.23;7.50;;;18.70;90.80;;;;;;5076709;28;20430;-72
2022/05/02 10:38:44;;;;;;;12.10;7.33;;;18.80;88.10;;;;;;5069230;28;20857;-73
2022/05/02 10:41:45;;;;;;;10.60;7.70;;;18.80;86.50;;;;;;5063462;28;20451;-72
2022/05/02 10:45:01;;;;;;;9.90;8.37;;;19.00;88.70;;;;;;5070734;28;20474;-72
2022/05/02 10:47:53;;;;;;;8.33;7.00;;;19.10;81.70;;;;;;5074663;28;20447;-73
2022/05/02 10:50:39;;;;;;;7.80;7.00;;;19.10;82.10;;;;;;5067199;28;20466;-72
2022/05/02 10:53:54;;;;;;;8.93;6.77;;;19.20;83.20;;;;;;5072253;28;20477;-72
2022/05/02 10:56:44;;;;;;;10.03;7.10;;;19.20;81.20;;;;;;5069679;28;20819;-73
2022/05/02 10:59:37;;;;;;;8.67;6.30;;;19.20;77.90;;;;;;5069632;28;20450;-71
2022/05/02 11:02:40;;;;;;;9.00;7.03;;;19.20;78.50;;;;;;5064315;28;20877;-72
2022/05/02 11:05:28;;;;;;;9.60;6.63;;;19.10;79.40;;;;;;5066286;28;20473;-72
2022/05/02 11:08:20;;;;;;;9.63;7.20;;;19.10;77.30;;;;;;5069331;28;21034;-72
2022/05/02 11:11:08;;;;;;;8.63;6.90;;;19.00;79.70;;;;;;5068052;28;20474;-72
2022/05/02 11:14:07;;;;;;;10.00;7.63;;;19.00;80.30;;;;;;5072197;28;20529;-72
2022/05/02 11:16:57;;;;;;;8.17;6.83;;;18.90;83.00;;;;;;5075833;28;20447;-72
2022/05/02 11:23:34;;;;;;;9.70;7.10;;;18.60;83.00;;;;;;5066315;28;20604;-72
2022/05/02 11:26:27;;;;;;;10.03;7.73;;;18.40;82.60;;;;;;5071078;28;20429;-72
2022/05/02 11:29:26;;;;;;;11.20;7.50;;;18.40;86.30;;;;;;5074967;28;20428;-72
2022/05/02 11:32:24;;;;;;;15.77;7.77;;;18.30;90.20;;;;;;5064264;28;20841;-72
2022/05/02 11:35:13;;;;;;;9.67;7.60;;;18.20;90.60;;;;;;5075757;28;20660;-72
2022/05/02 11:38:07;;;;;;;7.50;6.70;;;18.20;91.60;;;;;;5070382;28;20442;-72
2022/05/02 11:40:59;;;;;;;12.77;7.70;;;18.20;91.30;;;;;;5071208;28;20450;-72
2022/05/02 11:43:45;;;;;;;14.47;8.27;;;18.10;90.10;;;;;;5070324;28;20578;-72
2022/05/02 11:46:37;;;;;;;8.43;7.40;;;18.00;90.60;;;;;;5068410;28;20528;-72
2022/05/02 11:49:39;;;;;;;10.90;7.00;;;18.00;90.50;;;;;;5071281;28;20421;-72
2022/05/02 11:52:31;;;;;;;7.53;6.83;;;18.00;90.50;;;;;;5064523;28;20470;-72
2022/05/02 11:55:20;;;;;;;10.50;7.60;;;17.90;93.90;;;;;;5071521;28;20462;-72
2022/05/02 11:58:08;;;;;;;10.90;7.70;;;17.90;92.10;;;;;;5069911;28;20951;-72
2022/05/02 12:00:59;;;;;;;10.03;7.60;;;17.80;89.20;;;;;;5069762;28;20429;-71
2022/05/02 12:03:55;;;;;;;11.53;8.17;;;17.80;90.00;;;;;;5067751;28;20832;-72
2022/05/02 12:06:48;;;;;;;9.97;8.37;;;17.80;88.80;;;;;;5070776;28;20446;-71
2022/05/02 12:09:37;;;;;;;13.23;8.70;;;17.80;89.00;;;;;;5070188;28;20393;-72
2022/05/02 12:12:23;;;;;;;9.87;7.17;;;17.90;89.40;;;;;;5064831;28;20478;-72
2022/05/02 12:15:11;;;;;;;11.40;8.33;;;18.10;92.30;;;;;;5068357;28;20547;-71
2022/05/02 12:18:03;;;;;;;11.37;7.93;;;18.40;91.10;;;;;;5067141;28;20955;-70
2022/05/02 12:20:56;;;;;;;14.73;8.20;;;18.60;91.00;;;;;;5065518;28;20458;-70
2022/05/02 12:23:42;;;;;;;14.70;8.00;;;18.70;89.10;;;;;;5067361;28;20568;-72
2022/05/02 12:26:28;;;;;;;11.40;7.30;;;18.60;82.90;;;;;;5070467;28;20845;-72
2022/05/02 12:29:17;;;;;;;8.60;7.10;;;18.60;85.30;;;;;;5070725;28;20798;-72
2022/05/02 12:32:05;;;;;;;10.87;7.43;;;18.50;86.30;;;;;;5063984;28;20608;-72
2022/05/02 12:34:52;;;;;;;11.03;7.43;;;18.40;88.60;;;;;;5070311;28;20434;-72
2022/05/02 12:37:42;;;;;;;8.87;7.43;;;18.30;90.40;;;;;;5068630;28;20443;-72
2022/05/02 12:40:28;;;;;;;9.93;6.80;;;18.30;88.70;;;;;;5066447;28;20463;-72
2022/05/02 12:43:24;;;;;;;11.23;7.33;;;18.30;89.00;;;;;;5068715;28;20545;-72
2022/05/02 12:46:11;;;;;;;10.40;7.57;;;18.50;90.80;;;;;;5069480;28;20581;-72
2022/05/02 12:49:02;;;;;;;12.33;7.97;;;18.80;88.20;;;;;;5074447;28;20474;-72
2022/05/02 12:51:52;;;;;;;10.77;8.07;;;19.00;82.00;;;;;;5064709;28;20475;-72
2022/05/02 12:54:49;;;;;;;7.93;7.03;;;19.20;84.60;;;;;;5073826;28;20423;-72
2022/05/02 13:00:42;;;;;;;8.47;7.07;;;19.40;83.40;;;;;;5067711;28;20565;-72
2022/05/02 13:03:30;;;;;;;8.40;6.93;;;19.40;79.60;;;;;;5073201;28;21002;-72
2022/05/02 13:06:18;;;;;;;11.47;6.77;;;19.30;77.80;;;;;;5073429;28;20946;-72
2022/05/02 13:09:12;;;;;;;7.80;6.90;;;19.20;75.70;;;;;;5072932;28;20421;-72
2022/05/02 13:12:09;;;;;;;10.40;7.13;;;19.00;73.20;;;;;;5071490;28;20613;-72
2022/05/02 13:15:00;;;;;;;7.60;6.77;;;18.90;76.10;;;;;;5068152;28;20516;-72
2022/05/02 13:17:49;;;;;;;7.93;7.10;;;18.80;75.90;;;;;;5068843;28;20394;-73
2022/05/02 13:20:35;;;;;;;13.20;6.70;;;18.80;76.20;;;;;;5072061;28;20914;-72
2022/05/02 13:23:21;;;;;;;8.97;7.67;;;18.70;79.00;;;;;;5067582;28;20488;-72
2022/05/02 13:26:44;;;;;;;8.07;6.77;;;18.60;79.30;;;;;;5070220;28;20389;-72
2022/05/02 13:30:02;;;;;;;8.20;7.00;;;18.50;79.00;;;;;;5072801;28;20454;-72
2022/05/02 13:32:57;;;;;;;7.70;7.00;;;18.50;81.10;;;;;;5039903;28;20485;-72
2022/05/02 13:35:44;;;;;;;8.03;7.17;;;18.60;82.80;;;;;;5068598;28;20577;-71
2022/05/02 13:38:39;;;;;;;7.00;6.30;;;18.60;80.80;;;;;;5059025;28;20506;-73
2022/05/02 13:41:33;;;;;;;10.30;8.10;;;18.70;79.50;;;;;;5068523;28;20443;-72
2022/05/02 13:44:29;;;;;;;11.03;7.27;;;18.80;77.90;;;;;;5071093;28;20450;-72
2022/05/02 13:47:18;;;;;;;9.60;7.17;;;18.90;80.40;;;;;;5073059;28;20894;-72
2022/05/02 13:50:10;;;;;;;7.10;6.27;;;19.10;81.50;;;;;;5075738;28;20966;-72
2022/05/02 13:53:05;;;;;;;10.27;7.23;;;19.20;81.70;;;;;;5069120;28;20552;-72
2022/05/02 13:55:58;;;;;;;8.13;6.40;;;19.20;75.80;;;;;;5071084;28;20952;-72
2022/05/02 13:59:06;;;;;;;10.80;7.10;;;19.20;73.90;;;;;;5069907;28;20799;-72
2022/05/02 14:02:00;;;;;;;11.63;6.83;;;19.20;74.00;;;;;;5073355;28;20468;-72
2022/05/02 14:04:53;;;;;;;6.80;6.10;;;19.20;76.00;;;;;;5061281;28;20849;-72
2022/05/02 14:07:47;;;;;;;8.10;6.63;;;19.20;75.70;;;;;;5074397;28;20839;-72
2022/05/02 14:10:52;;;;;;;12.80;5.30;;;19.10;75.90;;;;;;5075974;28;20443;-72
2022/05/02 14:13:38;;;;;;;12.57;6.57;;;19.10;75.50;;;;;;5063054;28;20439;-72
2022/05/02 14:16:23;;;;;;;8.80;6.60;;;19.20;73.90;;;;;;5070757;28;20446;-72
2022/05/02 14:19:09;;;;;;;9.10;6.57;;;19.20;72.00;;;;;;5072979;28;20932;-72
2022/05/02 14:21:59;;;;;;;12.93;7.07;;;19.20;71.00;;;;;;5069443;28;20788;-72
2022/05/02 14:24:46;;;;;;;6.10;5.50;;;19.30;73.30;;;;;;5068152;28;20428;-72
2022/05/02 14:27:33;;;;;;;7.93;6.30;;;19.40;72.80;;;;;;5067444;28;20397;-72
2022/05/02 14:30:26;;;;;;;18.27;7.47;;;19.40;73.60;;;;;;5071670;28;20967;-72
2022/05/02 14:33:13;;;;;;;9.60;6.93;;;19.50;72.50;;;;;;5070212;28;20460;-70
2022/05/02 14:35:59;;;;;;;13.43;7.07;;;19.60;72.90;;;;;;5072539;28;20441;-70
2022/05/02 14:38:47;;;;;;;7.70;6.43;;;19.70;70.50;;;;;;5076864;28;20466;-70
2022/05/02 14:41:38;;;;;;;11.33;5.90;;;19.60;71.00;;;;;;5067875;28;20385;-70
2022/05/02 14:44:27;;;;;;;7.20;6.03;;;19.60;68.40;;;;;;5062423;28;20573;-70
2022/05/02 14:47:16;;;;;;;8.40;5.47;;;19.70;69.80;;;;;;5069876;28;20420;-70
2022/05/02 14:50:03;;;;;;;7.00;6.07;;;19.80;68.80;;;;;;5073401;28;20464;-70
2022/05/02 14:52:51;;;;;;;9.27;6.03;;;19.90;68.00;;;;;;5068109;28;20563;-70
2022/05/02 14:55:42;;;;;;;7.20;5.97;;;20.00;66.30;;;;;;5071519;28;20420;-70
2022/05/02 14:58:30;;;;;;;10.27;5.70;;;20.20;67.90;;;;;;5070311;28;20515;-70
2022/05/02 15:01:17;;;;;;;7.83;5.90;;;20.30;64.40;;;;;;5073091;28;20597;-70
2022/05/02 15:04:05;;;;;;;10.73;6.50;;;20.30;61.20;;;;;;5080099;22;20844;-73
2022/05/02 15:06:53;;;;;;;6.80;6.00;;;20.20;61.70;;;;;;5067329;28;20426;-73
2022/05/02 15:13:15;;;;;;;7.70;6.10;;;20.20;60.10;;;;;;5064619;28;20592;-71
2022/05/02 15:16:06;;;;;;;7.93;6.50;;;20.20;62.00;;;;;;5066064;28;20421;-73
2022/05/02 15:19:36;;;;;;;9.73;5.80;;;20.20;62.70;;;;;;5064847;28;20443;-73
2022/05/02 15:22:25;;;;;;;8.07;5.93;;;20.10;60.50;;;;;;5062156;28;20921;-73